sensor_id;sensor_type;location;lat;lon;timestamp;P1;durP1;ratioP1;P2;durP2;ratioP2
49828;SDS011;35723;51.194;5.112;2022-09-20T00:02:17;13.50;;;3.50;;
49828;SDS011;35723;51.194;5.112;2022-09-20T00:04:43;11.88;;;3.33;;
49828;SDS011;35723;51.194;5.112;2022-09-20T00:07:08;12.07;;;3.60;;
49828;SDS011;35723;51.194;5.112;2022-09-20T00:09:34;11.27;;;3.50;;
49828;SDS011;35723;51.194;5.112;2022-09-20T00:12:00;13.40;;;3.53;;
49828;SDS011;35723;51.194;5.112;2022-09-20T00:14:26;12.30;;;3.78;;
49828;SDS011;35723;51.194;5.112;2022-09-20T00:16:51;13.40;;;3.42;;
49828;SDS011;35723;51.194;5.112;2022-09-20T00:19:18;11.35;;;3.22;;
49828;SDS011;35723;51.194;5.112;2022-09-20T00:21:45;14.52;;;4.07;;
49828;SDS011;35723;51.194;5.112;2022-09-20T00:24:11;13.10;;;3.50;;
49828;SDS011;35723;51.194;5.112;2022-09-20T00:26:37;8.93;;;3.20;;
49828;SDS011;35723;51.194;5.112;2022-09-20T00:29:04;13.13;;;3.33;;
49828;SDS011;35723;51.194;5.112;2022-09-20T00:31:30;12.57;;;3.40;;
49828;SDS011;35723;51.194;5.112;2022-09-20T00:33:56;10.18;;;3.38;;
49828;SDS011;35723;51.194;5.112;2022-09-20T00:36:41;11.93;;;3.55;;
49828;SDS011;35723;51.194;5.112;2022-09-20T00:39:08;14.75;;;3.55;;
49828;SDS011;35723;51.194;5.112;2022-09-20T00:41:36;10.75;;;3.38;;
49828;SDS011;35723;51.194;5.112;2022-09-20T00:44:01;10.40;;;3.08;;
49828;SDS011;35723;51.194;5.112;2022-09-20T00:46:38;9.52;;;3.28;;
49828;SDS011;35723;51.194;5.112;2022-09-20T00:49:13;14.75;;;3.83;;
49828;SDS011;35723;51.194;5.112;2022-09-20T00:51:43;12.65;;;3.78;;
49828;SDS011;35723;51.194;5.112;2022-09-20T00:54:12;15.73;;;3.33;;
49828;SDS011;35723;51.194;5.112;2022-09-20T00:56:41;12.45;;;3.60;;
49828;SDS011;35723;51.194;5.112;2022-09-20T01:01:51;17.30;;;3.97;;
49828;SDS011;35723;51.194;5.112;2022-09-20T01:04:22;15.82;;;3.95;;
49828;SDS011;35723;51.194;5.112;2022-09-20T01:06:51;16.23;;;4.10;;
49828;SDS011;35723;51.194;5.112;2022-09-20T01:09:19;11.32;;;3.58;;
49828;SDS011;35723;51.194;5.112;2022-09-20T01:11:45;12.77;;;4.05;;
49828;SDS011;35723;51.194;5.112;2022-09-20T01:14:12;16.42;;;3.60;;
49828;SDS011;35723;51.194;5.112;2022-09-20T01:16:40;16.20;;;3.97;;
49828;SDS011;35723;51.194;5.112;2022-09-20T01:19:13;15.57;;;3.60;;
49828;SDS011;35723;51.194;5.112;2022-09-20T01:22:01;10.50;;;3.17;;
49828;SDS011;35723;51.194;5.112;2022-09-20T01:24:45;11.38;;;3.47;;
49828;SDS011;35723;51.194;5.112;2022-09-20T01:30:08;11.90;;;3.50;;
49828;SDS011;35723;51.194;5.112;2022-09-20T01:35:43;14.52;;;3.63;;
49828;SDS011;35723;51.194;5.112;2022-09-20T01:44:03;15.85;;;3.70;;
49828;SDS011;35723;51.194;5.112;2022-09-20T01:46:41;14.40;;;3.40;;
49828;SDS011;35723;51.194;5.112;2022-09-20T01:55:22;12.97;;;3.03;;
49828;SDS011;35723;51.194;5.112;2022-09-20T02:03:49;17.52;;;3.15;;
49828;SDS011;35723;51.194;5.112;2022-09-20T02:15:38;11.02;;;2.63;;
49828;SDS011;35723;51.194;5.112;2022-09-20T02:21:36;12.18;;;2.78;;
49828;SDS011;35723;51.194;5.112;2022-09-20T02:29:47;15.13;;;2.85;;
49828;SDS011;35723;51.194;5.112;2022-09-20T02:41:30;14.90;;;2.83;;
49828;SDS011;35723;51.194;5.112;2022-09-20T02:52:09;12.40;;;2.80;;
49828;SDS011;35723;51.194;5.112;2022-09-20T02:55:17;11.82;;;2.92;;
49828;SDS011;35723;51.194;5.112;2022-09-20T03:00:41;14.52;;;3.83;;
49828;SDS011;35723;51.194;5.112;2022-09-20T03:09:03;10.80;;;3.13;;
49828;SDS011;35723;51.194;5.112;2022-09-20T03:11:51;14.25;;;3.88;;
49828;SDS011;35723;51.194;5.112;2022-09-20T03:14:39;12.43;;;3.95;;
49828;SDS011;35723;51.194;5.112;2022-09-20T03:22:35;14.88;;;4.50;;
49828;SDS011;35723;51.194;5.112;2022-09-20T03:50:22;17.98;;;4.93;;
49828;SDS011;35723;51.194;5.112;2022-09-20T03:53:17;15.98;;;4.72;;
49828;SDS011;35723;51.194;5.112;2022-09-20T04:12:19;16.58;;;5.78;;
49828;SDS011;35723;51.194;5.112;2022-09-20T04:20:42;19.75;;;5.80;;
49828;SDS011;35723;51.194;5.112;2022-09-20T04:25:54;37.33;;;17.05;;
49828;SDS011;35723;51.194;5.112;2022-09-20T04:28:25;32.30;;;15.18;;
49828;SDS011;35723;51.194;5.112;2022-09-20T04:31:00;30.23;;;13.77;;
49828;SDS011;35723;51.194;5.112;2022-09-20T04:33:35;28.98;;;12.48;;
49828;SDS011;35723;51.194;5.112;2022-09-20T04:52:55;17.55;;;7.32;;
49828;SDS011;35723;51.194;5.112;2022-09-20T05:18:09;13.68;;;5.15;;
49828;SDS011;35723;51.194;5.112;2022-09-20T05:23:58;15.18;;;5.07;;
49828;SDS011;35723;51.194;5.112;2022-09-20T05:34:30;16.45;;;4.78;;
49828;SDS011;35723;51.194;5.112;2022-09-20T05:39:58;13.20;;;4.80;;
49828;SDS011;35723;51.194;5.112;2022-09-20T06:01:42;15.48;;;5.10;;
49828;SDS011;35723;51.194;5.112;2022-09-20T06:04:44;12.50;;;5.00;;
49828;SDS011;35723;51.194;5.112;2022-09-20T06:07:19;17.70;;;6.22;;
49828;SDS011;35723;51.194;5.112;2022-09-20T06:15:35;19.38;;;7.20;;
49828;SDS011;35723;51.194;5.112;2022-09-20T06:23:27;21.02;;;7.57;;
49828;SDS011;35723;51.194;5.112;2022-09-20T06:26:01;22.25;;;7.90;;
49828;SDS011;35723;51.194;5.112;2022-09-20T06:28:40;24.63;;;8.88;;
49828;SDS011;35723;51.194;5.112;2022-09-20T06:31:12;17.58;;;7.78;;
49828;SDS011;35723;51.194;5.112;2022-09-20T06:33:41;23.08;;;8.35;;
49828;SDS011;35723;51.194;5.112;2022-09-20T06:36:18;22.77;;;8.07;;
49828;SDS011;35723;51.194;5.112;2022-09-20T06:42:14;22.90;;;9.30;;
49828;SDS011;35723;51.194;5.112;2022-09-20T06:44:39;24.70;;;9.68;;
49828;SDS011;35723;51.194;5.112;2022-09-20T06:47:10;24.73;;;10.38;;
49828;SDS011;35723;51.194;5.112;2022-09-20T06:49:37;23.83;;;9.55;;
49828;SDS011;35723;51.194;5.112;2022-09-20T06:52:12;25.83;;;10.02;;
49828;SDS011;35723;51.194;5.112;2022-09-20T06:54:40;26.42;;;9.93;;
49828;SDS011;35723;51.194;5.112;2022-09-20T06:57:11;27.58;;;9.93;;
49828;SDS011;35723;51.194;5.112;2022-09-20T06:59:40;20.85;;;9.80;;
49828;SDS011;35723;51.194;5.112;2022-09-20T07:02:06;26.95;;;10.10;;
49828;SDS011;35723;51.194;5.112;2022-09-20T07:04:32;27.30;;;11.38;;
49828;SDS011;35723;51.194;5.112;2022-09-20T07:07:02;24.58;;;10.00;;
49828;SDS011;35723;51.194;5.112;2022-09-20T07:09:29;25.77;;;10.50;;
49828;SDS011;35723;51.194;5.112;2022-09-20T07:11:55;26.50;;;10.05;;
49828;SDS011;35723;51.194;5.112;2022-09-20T07:14:23;24.05;;;9.75;;
49828;SDS011;35723;51.194;5.112;2022-09-20T07:16:50;25.08;;;9.77;;
49828;SDS011;35723;51.194;5.112;2022-09-20T07:19:16;22.95;;;10.00;;
49828;SDS011;35723;51.194;5.112;2022-09-20T07:21:43;23.20;;;9.45;;
49828;SDS011;35723;51.194;5.112;2022-09-20T07:24:08;23.50;;;9.35;;
49828;SDS011;35723;51.194;5.112;2022-09-20T07:26:34;20.23;;;9.13;;
49828;SDS011;35723;51.194;5.112;2022-09-20T07:29:03;21.60;;;9.15;;
49828;SDS011;35723;51.194;5.112;2022-09-20T07:31:30;21.98;;;8.60;;
49828;SDS011;35723;51.194;5.112;2022-09-20T07:33:56;23.63;;;9.23;;
49828;SDS011;35723;51.194;5.112;2022-09-20T07:36:22;20.80;;;9.20;;
49828;SDS011;35723;51.194;5.112;2022-09-20T07:38:48;23.88;;;9.98;;
49828;SDS011;35723;51.194;5.112;2022-09-20T07:41:16;23.20;;;9.60;;
49828;SDS011;35723;51.194;5.112;2022-09-20T07:43:46;23.60;;;10.23;;
49828;SDS011;35723;51.194;5.112;2022-09-20T07:46:12;26.95;;;9.55;;
49828;SDS011;35723;51.194;5.112;2022-09-20T07:48:38;21.33;;;9.13;;
49828;SDS011;35723;51.194;5.112;2022-09-20T07:51:09;20.70;;;8.82;;
49828;SDS011;35723;51.194;5.112;2022-09-20T07:53:37;26.40;;;9.07;;
49828;SDS011;35723;51.194;5.112;2022-09-20T07:56:07;28.52;;;9.93;;
49828;SDS011;35723;51.194;5.112;2022-09-20T07:58:35;24.23;;;9.57;;
49828;SDS011;35723;51.194;5.112;2022-09-20T08:01:03;23.27;;;10.27;;
49828;SDS011;35723;51.194;5.112;2022-09-20T08:03:31;25.17;;;10.95;;
49828;SDS011;35723;51.194;5.112;2022-09-20T08:05:59;27.98;;;11.52;;
49828;SDS011;35723;51.194;5.112;2022-09-20T08:08:26;27.35;;;12.23;;
49828;SDS011;35723;51.194;5.112;2022-09-20T08:10:53;24.80;;;11.55;;
49828;SDS011;35723;51.194;5.112;2022-09-20T08:13:26;26.48;;;11.50;;
49828;SDS011;35723;51.194;5.112;2022-09-20T08:15:59;25.45;;;10.75;;
49828;SDS011;35723;51.194;5.112;2022-09-20T08:18:26;27.90;;;12.13;;
49828;SDS011;35723;51.194;5.112;2022-09-20T08:20:52;25.55;;;12.57;;
49828;SDS011;35723;51.194;5.112;2022-09-20T08:23:19;25.38;;;11.80;;
49828;SDS011;35723;51.194;5.112;2022-09-20T08:25:45;26.33;;;11.95;;
49828;SDS011;35723;51.194;5.112;2022-09-20T08:28:12;25.20;;;12.35;;
49828;SDS011;35723;51.194;5.112;2022-09-20T08:30:37;22.63;;;9.77;;
49828;SDS011;35723;51.194;5.112;2022-09-20T08:33:03;27.02;;;11.50;;
49828;SDS011;35723;51.194;5.112;2022-09-20T08:35:33;27.00;;;11.13;;
49828;SDS011;35723;51.194;5.112;2022-09-20T08:37:59;23.00;;;10.50;;
49828;SDS011;35723;51.194;5.112;2022-09-20T08:40:25;21.88;;;10.10;;
49828;SDS011;35723;51.194;5.112;2022-09-20T08:42:53;23.05;;;9.00;;
49828;SDS011;35723;51.194;5.112;2022-09-20T08:49:59;20.20;;;6.80;;
49828;SDS011;35723;51.194;5.112;2022-09-20T08:52:33;19.55;;;5.80;;
49828;SDS011;35723;51.194;5.112;2022-09-20T08:55:02;14.90;;;4.22;;
49828;SDS011;35723;51.194;5.112;2022-09-20T08:57:37;15.23;;;3.55;;
49828;SDS011;35723;51.194;5.112;2022-09-20T09:00:14;11.82;;;3.13;;
49828;SDS011;35723;51.194;5.112;2022-09-20T09:02:42;14.73;;;3.40;;
49828;SDS011;35723;51.194;5.112;2022-09-20T09:11:03;10.43;;;2.60;;
49828;SDS011;35723;51.194;5.112;2022-09-20T09:13:40;10.38;;;2.50;;
49828;SDS011;35723;51.194;5.112;2022-09-20T09:16:16;7.35;;;2.38;;
49828;SDS011;35723;51.194;5.112;2022-09-20T09:18:44;9.98;;;2.40;;
49828;SDS011;35723;51.194;5.112;2022-09-20T09:21:23;7.85;;;2.20;;
49828;SDS011;35723;51.194;5.112;2022-09-20T09:23:54;6.22;;;2.30;;
49828;SDS011;35723;51.194;5.112;2022-09-20T09:26:28;5.00;;;1.90;;
49828;SDS011;35723;51.194;5.112;2022-09-20T09:29:07;6.43;;;2.00;;
49828;SDS011;35723;51.194;5.112;2022-09-20T09:33:58;5.53;;;1.88;;
49828;SDS011;35723;51.194;5.112;2022-09-20T09:36:24;4.75;;;1.77;;
49828;SDS011;35723;51.194;5.112;2022-09-20T09:41:41;5.68;;;1.65;;
49828;SDS011;35723;51.194;5.112;2022-09-20T09:44:28;5.60;;;1.90;;
49828;SDS011;35723;51.194;5.112;2022-09-20T09:46:55;5.07;;;1.83;;
49828;SDS011;35723;51.194;5.112;2022-09-20T09:49:25;5.82;;;2.00;;
49828;SDS011;35723;51.194;5.112;2022-09-20T09:54:26;4.97;;;1.52;;
49828;SDS011;35723;51.194;5.112;2022-09-20T09:57:03;4.22;;;1.55;;
49828;SDS011;35723;51.194;5.112;2022-09-20T10:05:34;4.15;;;1.83;;
49828;SDS011;35723;51.194;5.112;2022-09-20T10:16:14;10.75;;;1.95;;
49828;SDS011;35723;51.194;5.112;2022-09-20T10:22:21;9.27;;;1.92;;
49828;SDS011;35723;51.194;5.112;2022-09-20T10:30:35;7.10;;;1.92;;
49828;SDS011;35723;51.194;5.112;2022-09-20T10:33:34;11.23;;;2.15;;
49828;SDS011;35723;51.194;5.112;2022-09-20T10:47:22;8.98;;;1.77;;
49828;SDS011;35723;51.194;5.112;2022-09-20T10:52:59;9.52;;;2.00;;
49828;SDS011;35723;51.194;5.112;2022-09-20T10:55:45;8.15;;;2.03;;
49828;SDS011;35723;51.194;5.112;2022-09-20T11:01:25;9.23;;;1.92;;
49828;SDS011;35723;51.194;5.112;2022-09-20T11:09:47;8.88;;;1.95;;
49828;SDS011;35723;51.194;5.112;2022-09-20T11:12:22;8.93;;;2.33;;
49828;SDS011;35723;51.194;5.112;2022-09-20T11:14:53;8.82;;;2.40;;
49828;SDS011;35723;51.194;5.112;2022-09-20T11:17:31;10.68;;;2.83;;
49828;SDS011;35723;51.194;5.112;2022-09-20T11:20:12;10.57;;;2.65;;
49828;SDS011;35723;51.194;5.112;2022-09-20T11:22:44;12.77;;;2.72;;
49828;SDS011;35723;51.194;5.112;2022-09-20T11:25:20;10.38;;;2.72;;
49828;SDS011;35723;51.194;5.112;2022-09-20T11:28:00;11.77;;;2.70;;
49828;SDS011;35723;51.194;5.112;2022-09-20T11:30:33;7.63;;;2.42;;
49828;SDS011;35723;51.194;5.112;2022-09-20T11:33:27;11.35;;;2.80;;
49828;SDS011;35723;51.194;5.112;2022-09-20T11:35:57;10.57;;;2.40;;
49828;SDS011;35723;51.194;5.112;2022-09-20T11:38:37;9.18;;;2.50;;
49828;SDS011;35723;51.194;5.112;2022-09-20T11:41:15;6.32;;;2.30;;
49828;SDS011;35723;51.194;5.112;2022-09-20T11:43:46;8.63;;;2.47;;
49828;SDS011;35723;51.194;5.112;2022-09-20T11:51:44;4.78;;;1.70;;
49828;SDS011;35723;51.194;5.112;2022-09-20T11:57:03;7.75;;;2.20;;
49828;SDS011;35723;51.194;5.112;2022-09-20T11:59:33;6.57;;;2.00;;
49828;SDS011;35723;51.194;5.112;2022-09-20T12:02:12;4.78;;;1.90;;
49828;SDS011;35723;51.194;5.112;2022-09-20T12:04:45;7.03;;;2.08;;
49828;SDS011;35723;51.194;5.112;2022-09-20T12:07:18;7.05;;;2.03;;
49828;SDS011;35723;51.194;5.112;2022-09-20T12:09:58;3.22;;;1.45;;
49828;SDS011;35723;51.194;5.112;2022-09-20T12:12:39;6.90;;;1.75;;
49828;SDS011;35723;51.194;5.112;2022-09-20T12:26:06;6.38;;;2.00;;
49828;SDS011;35723;51.194;5.112;2022-09-20T12:34:02;6.35;;;1.77;;
49828;SDS011;35723;51.194;5.112;2022-09-20T12:39:21;6.60;;;1.95;;
49828;SDS011;35723;51.194;5.112;2022-09-20T12:44:29;5.72;;;1.90;;
49828;SDS011;35723;51.194;5.112;2022-09-20T12:47:01;6.03;;;1.77;;
49828;SDS011;35723;51.194;5.112;2022-09-20T12:49:32;6.07;;;2.00;;
49828;SDS011;35723;51.194;5.112;2022-09-20T13:00:38;4.63;;;1.65;;
49828;SDS011;35723;51.194;5.112;2022-09-20T13:11:15;4.80;;;1.60;;
49828;SDS011;35723;51.194;5.112;2022-09-20T13:21:35;3.97;;;1.38;;
49828;SDS011;35723;51.194;5.112;2022-09-20T13:24:02;5.27;;;1.60;;
49828;SDS011;35723;51.194;5.112;2022-09-20T13:26:32;4.03;;;1.50;;
49828;SDS011;35723;51.194;5.112;2022-09-20T13:29:01;3.53;;;1.60;;
49828;SDS011;35723;51.194;5.112;2022-09-20T13:31:31;3.92;;;1.48;;
49828;SDS011;35723;51.194;5.112;2022-09-20T13:34:11;9.27;;;1.60;;
49828;SDS011;35723;51.194;5.112;2022-09-20T13:36:45;6.03;;;1.75;;
49828;SDS011;35723;51.194;5.112;2022-09-20T13:39:25;2.50;;;1.17;;
49828;SDS011;35723;51.194;5.112;2022-09-20T13:42:01;3.53;;;1.42;;
49828;SDS011;35723;51.194;5.112;2022-09-20T13:44:31;4.18;;;1.50;;
49828;SDS011;35723;51.194;5.112;2022-09-20T13:46:58;6.80;;;1.75;;
49828;SDS011;35723;51.194;5.112;2022-09-20T13:49:29;4.63;;;1.55;;
49828;SDS011;35723;51.194;5.112;2022-09-20T13:51:55;3.20;;;1.23;;
49828;SDS011;35723;51.194;5.112;2022-09-20T13:54:25;4.93;;;1.55;;
49828;SDS011;35723;51.194;5.112;2022-09-20T13:56:57;4.30;;;1.42;;
49828;SDS011;35723;51.194;5.112;2022-09-20T13:59:34;4.70;;;1.40;;
49828;SDS011;35723;51.194;5.112;2022-09-20T14:02:16;6.28;;;1.35;;
49828;SDS011;35723;51.194;5.112;2022-09-20T14:04:50;3.00;;;1.20;;
49828;SDS011;35723;51.194;5.112;2022-09-20T14:07:18;3.20;;;1.30;;
49828;SDS011;35723;51.194;5.112;2022-09-20T14:09:45;2.38;;;1.00;;
49828;SDS011;35723;51.194;5.112;2022-09-20T14:12:11;4.03;;;1.30;;
49828;SDS011;35723;51.194;5.112;2022-09-20T14:14:38;3.63;;;1.45;;
49828;SDS011;35723;51.194;5.112;2022-09-20T14:17:04;3.22;;;1.52;;
49828;SDS011;35723;51.194;5.112;2022-09-20T14:19:33;3.25;;;1.17;;
49828;SDS011;35723;51.194;5.112;2022-09-20T14:22:04;2.03;;;1.23;;
49828;SDS011;35723;51.194;5.112;2022-09-20T14:24:31;3.28;;;1.38;;
49828;SDS011;35723;51.194;5.112;2022-09-20T14:27:15;2.05;;;1.10;;
49828;SDS011;35723;51.194;5.112;2022-09-20T14:29:46;2.83;;;1.20;;
49828;SDS011;35723;51.194;5.112;2022-09-20T14:34:42;4.07;;;1.35;;
49828;SDS011;35723;51.194;5.112;2022-09-20T14:39:48;4.38;;;1.38;;
49828;SDS011;35723;51.194;5.112;2022-09-20T14:42:18;3.20;;;1.35;;
49828;SDS011;35723;51.194;5.112;2022-09-20T14:44:49;4.05;;;1.40;;
49828;SDS011;35723;51.194;5.112;2022-09-20T14:47:16;2.13;;;1.20;;
49828;SDS011;35723;51.194;5.112;2022-09-20T14:49:53;2.55;;;1.17;;
49828;SDS011;35723;51.194;5.112;2022-09-20T14:54:59;3.53;;;1.20;;
49828;SDS011;35723;51.194;5.112;2022-09-20T14:57:46;2.05;;;1.10;;
49828;SDS011;35723;51.194;5.112;2022-09-20T15:00:13;2.95;;;1.20;;
49828;SDS011;35723;51.194;5.112;2022-09-20T15:02:43;2.33;;;1.20;;
49828;SDS011;35723;51.194;5.112;2022-09-20T15:05:17;3.78;;;1.10;;
49828;SDS011;35723;51.194;5.112;2022-09-20T15:07:54;2.45;;;1.10;;
49828;SDS011;35723;51.194;5.112;2022-09-20T15:10:20;2.22;;;1.20;;
49828;SDS011;35723;51.194;5.112;2022-09-20T15:12:47;1.70;;;1.00;;
49828;SDS011;35723;51.194;5.112;2022-09-20T15:15:14;3.92;;;1.20;;
49828;SDS011;35723;51.194;5.112;2022-09-20T15:17:44;2.95;;;0.85;;
49828;SDS011;35723;51.194;5.112;2022-09-20T15:20:15;2.92;;;1.15;;
49828;SDS011;35723;51.194;5.112;2022-09-20T15:22:43;2.70;;;1.20;;
49828;SDS011;35723;51.194;5.112;2022-09-20T15:25:12;2.50;;;1.00;;
49828;SDS011;35723;51.194;5.112;2022-09-20T15:27:43;3.10;;;1.25;;
49828;SDS011;35723;51.194;5.112;2022-09-20T15:30:16;3.17;;;1.27;;
49828;SDS011;35723;51.194;5.112;2022-09-20T15:32:43;2.28;;;1.00;;
49828;SDS011;35723;51.194;5.112;2022-09-20T15:35:10;4.47;;;1.20;;
49828;SDS011;35723;51.194;5.112;2022-09-20T15:37:39;2.53;;;1.05;;
49828;SDS011;35723;51.194;5.112;2022-09-20T15:40:06;3.17;;;1.02;;
49828;SDS011;35723;51.194;5.112;2022-09-20T15:42:33;2.78;;;1.30;;
49828;SDS011;35723;51.194;5.112;2022-09-20T15:45:06;3.08;;;1.25;;
49828;SDS011;35723;51.194;5.112;2022-09-20T15:47:34;3.10;;;1.10;;
49828;SDS011;35723;51.194;5.112;2022-09-20T15:50:02;2.95;;;1.15;;
49828;SDS011;35723;51.194;5.112;2022-09-20T15:52:35;4.32;;;1.27;;
49828;SDS011;35723;51.194;5.112;2022-09-20T15:55:05;4.60;;;1.00;;
49828;SDS011;35723;51.194;5.112;2022-09-20T15:57:32;5.68;;;1.25;;
49828;SDS011;35723;51.194;5.112;2022-09-20T15:59:58;2.47;;;1.02;;
49828;SDS011;35723;51.194;5.112;2022-09-20T16:02:24;3.00;;;1.13;;
49828;SDS011;35723;51.194;5.112;2022-09-20T16:04:51;2.88;;;1.10;;
49828;SDS011;35723;51.194;5.112;2022-09-20T16:07:20;7.57;;;1.40;;
49828;SDS011;35723;51.194;5.112;2022-09-20T16:09:53;2.83;;;1.05;;
49828;SDS011;35723;51.194;5.112;2022-09-20T16:12:20;3.00;;;1.20;;
49828;SDS011;35723;51.194;5.112;2022-09-20T16:14:47;3.53;;;1.20;;
49828;SDS011;35723;51.194;5.112;2022-09-20T16:17:13;2.65;;;0.98;;
49828;SDS011;35723;51.194;5.112;2022-09-20T16:19:39;3.03;;;1.15;;
49828;SDS011;35723;51.194;5.112;2022-09-20T16:22:05;3.33;;;1.10;;
49828;SDS011;35723;51.194;5.112;2022-09-20T16:24:32;2.33;;;1.02;;
49828;SDS011;35723;51.194;5.112;2022-09-20T16:27:00;2.92;;;0.95;;
49828;SDS011;35723;51.194;5.112;2022-09-20T16:29:27;1.70;;;0.80;;
49828;SDS011;35723;51.194;5.112;2022-09-20T16:31:54;2.40;;;0.95;;
49828;SDS011;35723;51.194;5.112;2022-09-20T16:34:25;3.20;;;1.20;;
49828;SDS011;35723;51.194;5.112;2022-09-20T16:37:05;3.28;;;1.10;;
49828;SDS011;35723;51.194;5.112;2022-09-20T16:39:35;2.72;;;1.10;;
49828;SDS011;35723;51.194;5.112;2022-09-20T16:42:02;3.80;;;1.00;;
49828;SDS011;35723;51.194;5.112;2022-09-20T16:44:30;3.53;;;0.95;;
49828;SDS011;35723;51.194;5.112;2022-09-20T16:47:00;2.58;;;1.02;;
49828;SDS011;35723;51.194;5.112;2022-09-20T16:49:26;3.78;;;1.20;;
49828;SDS011;35723;51.194;5.112;2022-09-20T16:51:52;1.60;;;0.98;;
49828;SDS011;35723;51.194;5.112;2022-09-20T16:54:18;4.32;;;1.08;;
49828;SDS011;35723;51.194;5.112;2022-09-20T16:56:45;2.72;;;1.15;;
49828;SDS011;35723;51.194;5.112;2022-09-20T16:59:13;3.20;;;1.10;;
49828;SDS011;35723;51.194;5.112;2022-09-20T17:01:40;2.28;;;1.02;;
49828;SDS011;35723;51.194;5.112;2022-09-20T17:04:06;4.70;;;1.17;;
49828;SDS011;35723;51.194;5.112;2022-09-20T17:06:34;3.22;;;1.02;;
49828;SDS011;35723;51.194;5.112;2022-09-20T17:09:02;2.40;;;0.90;;
49828;SDS011;35723;51.194;5.112;2022-09-20T17:11:29;5.07;;;1.30;;
49828;SDS011;35723;51.194;5.112;2022-09-20T17:13:57;3.13;;;1.33;;
49828;SDS011;35723;51.194;5.112;2022-09-20T17:16:24;2.47;;;1.10;;
49828;SDS011;35723;51.194;5.112;2022-09-20T17:19:02;3.67;;;0.98;;
49828;SDS011;35723;51.194;5.112;2022-09-20T17:21:32;3.15;;;1.05;;
49828;SDS011;35723;51.194;5.112;2022-09-20T17:24:00;2.97;;;1.05;;
49828;SDS011;35723;51.194;5.112;2022-09-20T17:26:28;2.33;;;1.05;;
49828;SDS011;35723;51.194;5.112;2022-09-20T17:28:57;2.78;;;0.85;;
49828;SDS011;35723;51.194;5.112;2022-09-20T17:31:25;3.70;;;1.13;;
49828;SDS011;35723;51.194;5.112;2022-09-20T17:33:56;2.65;;;0.70;;
49828;SDS011;35723;51.194;5.112;2022-09-20T17:36:24;4.65;;;1.00;;
49828;SDS011;35723;51.194;5.112;2022-09-20T17:38:55;5.80;;;1.02;;
49828;SDS011;35723;51.194;5.112;2022-09-20T17:41:23;3.90;;;1.20;;
49828;SDS011;35723;51.194;5.112;2022-09-20T17:43:52;3.40;;;1.10;;
49828;SDS011;35723;51.194;5.112;2022-09-20T17:46:22;1.30;;;0.90;;
49828;SDS011;35723;51.194;5.112;2022-09-20T17:48:59;2.10;;;1.02;;
49828;SDS011;35723;51.194;5.112;2022-09-20T17:51:27;3.72;;;1.05;;
49828;SDS011;35723;51.194;5.112;2022-09-20T17:53:55;2.78;;;1.30;;
49828;SDS011;35723;51.194;5.112;2022-09-20T17:56:22;5.88;;;1.45;;
49828;SDS011;35723;51.194;5.112;2022-09-20T17:58:52;3.38;;;1.40;;
49828;SDS011;35723;51.194;5.112;2022-09-20T18:01:18;3.03;;;1.30;;
49828;SDS011;35723;51.194;5.112;2022-09-20T18:03:44;4.15;;;1.98;;
49828;SDS011;35723;51.194;5.112;2022-09-20T18:06:21;4.57;;;1.60;;
49828;SDS011;35723;51.194;5.112;2022-09-20T18:09:01;3.05;;;1.90;;
49828;SDS011;35723;51.194;5.112;2022-09-20T18:11:33;4.72;;;1.98;;
49828;SDS011;35723;51.194;5.112;2022-09-20T18:14:00;6.07;;;1.92;;
49828;SDS011;35723;51.194;5.112;2022-09-20T18:16:29;4.18;;;2.00;;
49828;SDS011;35723;51.194;5.112;2022-09-20T18:18:55;4.43;;;2.30;;
49828;SDS011;35723;51.194;5.112;2022-09-20T18:21:23;3.65;;;2.03;;
49828;SDS011;35723;51.194;5.112;2022-09-20T18:23:50;4.97;;;2.20;;
49828;SDS011;35723;51.194;5.112;2022-09-20T18:26:24;3.25;;;2.40;;
49828;SDS011;35723;51.194;5.112;2022-09-20T18:31:32;4.57;;;2.50;;
49828;SDS011;35723;51.194;5.112;2022-09-20T18:34:03;3.65;;;2.25;;
49828;SDS011;35723;51.194;5.112;2022-09-20T18:36:31;6.10;;;2.33;;
49828;SDS011;35723;51.194;5.112;2022-09-20T18:38:58;4.40;;;2.30;;
49828;SDS011;35723;51.194;5.112;2022-09-20T18:41:25;4.28;;;2.40;;
49828;SDS011;35723;51.194;5.112;2022-09-20T18:43:53;4.47;;;2.20;;
49828;SDS011;35723;51.194;5.112;2022-09-20T18:46:20;4.13;;;2.40;;
49828;SDS011;35723;51.194;5.112;2022-09-20T18:48:54;3.60;;;2.35;;
49828;SDS011;35723;51.194;5.112;2022-09-20T18:51:21;4.55;;;2.30;;
49828;SDS011;35723;51.194;5.112;2022-09-20T18:53:48;3.97;;;2.35;;
49828;SDS011;35723;51.194;5.112;2022-09-20T18:58:58;5.88;;;2.50;;
49828;SDS011;35723;51.194;5.112;2022-09-20T19:06:42;7.63;;;2.90;;
49828;SDS011;35723;51.194;5.112;2022-09-20T19:09:23;7.85;;;3.17;;
49828;SDS011;35723;51.194;5.112;2022-09-20T19:12:17;9.70;;;3.58;;
49828;SDS011;35723;51.194;5.112;2022-09-20T19:25:49;9.88;;;4.20;;
49828;SDS011;35723;51.194;5.112;2022-09-20T19:28:27;8.93;;;4.00;;
49828;SDS011;35723;51.194;5.112;2022-09-20T19:30:53;8.40;;;3.83;;
49828;SDS011;35723;51.194;5.112;2022-09-20T19:33:21;9.80;;;4.10;;
49828;SDS011;35723;51.194;5.112;2022-09-20T19:35:48;11.85;;;4.15;;
49828;SDS011;35723;51.194;5.112;2022-09-20T19:38:22;9.73;;;4.10;;
49828;SDS011;35723;51.194;5.112;2022-09-20T19:48:33;11.25;;;4.25;;
49828;SDS011;35723;51.194;5.112;2022-09-20T19:51:03;9.93;;;4.07;;
49828;SDS011;35723;51.194;5.112;2022-09-20T19:53:32;8.65;;;3.90;;
49828;SDS011;35723;51.194;5.112;2022-09-20T19:58:38;9.20;;;4.07;;
49828;SDS011;35723;51.194;5.112;2022-09-20T20:01:06;9.93;;;4.10;;
49828;SDS011;35723;51.194;5.112;2022-09-20T20:03:33;10.10;;;4.00;;
49828;SDS011;35723;51.194;5.112;2022-09-20T20:06:05;8.20;;;3.95;;
49828;SDS011;35723;51.194;5.112;2022-09-20T20:11:44;10.77;;;4.07;;
49828;SDS011;35723;51.194;5.112;2022-09-20T20:28:24;8.95;;;4.22;;
49828;SDS011;35723;51.194;5.112;2022-09-20T20:30:50;10.23;;;4.53;;
49828;SDS011;35723;51.194;5.112;2022-09-20T20:33:16;10.85;;;4.43;;
49828;SDS011;35723;51.194;5.112;2022-09-20T20:35:50;9.93;;;4.47;;
49828;SDS011;35723;51.194;5.112;2022-09-20T20:38:17;8.23;;;4.18;;
49828;SDS011;35723;51.194;5.112;2022-09-20T20:40:43;9.68;;;4.60;;
49828;SDS011;35723;51.194;5.112;2022-09-20T20:43:08;9.82;;;4.53;;
49828;SDS011;35723;51.194;5.112;2022-09-20T20:45:34;11.60;;;4.82;;
49828;SDS011;35723;51.194;5.112;2022-09-20T20:48:00;9.95;;;4.35;;
49828;SDS011;35723;51.194;5.112;2022-09-20T20:50:26;11.90;;;4.38;;
49828;SDS011;35723;51.194;5.112;2022-09-20T20:52:53;10.27;;;4.28;;
49828;SDS011;35723;51.194;5.112;2022-09-20T20:55:21;8.38;;;4.15;;
49828;SDS011;35723;51.194;5.112;2022-09-20T20:57:53;9.90;;;4.40;;
49828;SDS011;35723;51.194;5.112;2022-09-20T21:00:22;9.18;;;4.28;;
49828;SDS011;35723;51.194;5.112;2022-09-20T21:02:54;10.43;;;4.53;;
49828;SDS011;35723;51.194;5.112;2022-09-20T21:05:21;8.82;;;4.03;;
49828;SDS011;35723;51.194;5.112;2022-09-20T21:07:49;9.02;;;4.30;;
49828;SDS011;35723;51.194;5.112;2022-09-20T21:10:16;7.82;;;3.92;;
49828;SDS011;35723;51.194;5.112;2022-09-20T21:12:41;8.95;;;4.30;;
49828;SDS011;35723;51.194;5.112;2022-09-20T21:15:07;9.48;;;4.25;;
49828;SDS011;35723;51.194;5.112;2022-09-20T21:17:33;7.80;;;4.03;;
49828;SDS011;35723;51.194;5.112;2022-09-20T21:19:59;8.23;;;4.15;;
49828;SDS011;35723;51.194;5.112;2022-09-20T21:22:25;9.50;;;4.10;;
49828;SDS011;35723;51.194;5.112;2022-09-20T21:24:50;9.40;;;4.10;;
49828;SDS011;35723;51.194;5.112;2022-09-20T21:27:17;9.07;;;4.25;;
49828;SDS011;35723;51.194;5.112;2022-09-20T21:29:44;8.70;;;4.20;;
49828;SDS011;35723;51.194;5.112;2022-09-20T21:32:10;9.15;;;4.35;;